Norderney Airport

EDWY · Niedersachsen, Deutschland

METAR-Geschichte EDWY · Norderney Airport

Unten siehst du die METARs der letzten paar Tage. Wähle ein Jahr, um ältere METARs ab dem Jahr 2007 zu durchsuchen.

12. Juli 2024

Uhrzeit Code Wetter Temp. Sichtweite Wolkendecke Wind METAR/SPECI
22:50
I
14 °C 10 km+ 600 ft 280° 280° 16 kt METAR EDWE 122050Z AUTO 28016KT 9999 OVC006/// 14/14 Q1007
22:20
I
14 °C 10 km+ 700 ft 290° 290° 14 kt METAR EDWE 122020Z AUTO 29014KT 9999 OVC007/// 14/14 Q1007
21:50
I
15 °C 10 km+ 700 ft 300° 300° 15 kt METAR EDWE 121950Z AUTO 30015KT 9999 OVC007/// 15/14 Q1006
21:20
I
15 °C 10 km+ 800 ft 310° 310° 14 kt METAR EDWE 121920Z AUTO 31014KT 9999 OVC008/// 15/14 Q1006
20:50
I
15 °C 8 km 700 ft 310° 310° 16 kt METAR EDWE 121850Z AUTO 31016KT 8000 OVC007/// 15/14 Q1006
20:20
I
15 °C 7 km 700 ft 320° 320° 14 kt METAR EDWE 121820Z AUTO 32014KT 7000 BKN007/// OVC017/// 15/14 Q1006
05:50
V
15 °C 10 km+ 3.600 ft Var Var 1 kt METAR EDWE 120350Z AUTO VRB01KT 9999 OVC036/// 15/14 Q1016
05:20
V
14 °C 10 km+ 3.500 ft 310° 310° 2 kt METAR EDWE 120320Z AUTO 31002KT 9999 OVC035/// 14/14 Q1016
04:50
M
14 °C 5 km 3.400 ft 320° 320° 2 kt METAR EDWE 120250Z AUTO 32002KT 5000 OVC034/// 14/14 Q1016
04:20
V
15 °C 10 km+ 3.400 ft 360° 360° 0 kt METAR EDWE 120220Z AUTO 00000KT 9999 FEW023/// OVC034/// 15/13 Q1016
03:50
M
15 °C 10 km+ 2.600 ft Var Var 1 kt METAR EDWE 120150Z AUTO VRB01KT 9999 SCT021/// BKN026/// OVC030/// 15/13 Q1016
03:20
M
15 °C 10 km+ 2.800 ft 150° 150° 3 kt METAR EDWE 120120Z AUTO 15003KT 9999 OVC028/// 15/14 Q1016
02:50
M
14 °C 10 km+ 2.800 ft 130° 130° 2 kt METAR EDWE 120050Z AUTO 13002KT 9999 FEW020/// OVC028/// 14/14 Q1016
02:20
M
14 °C 10 km+ 2.800 ft 360° 360° 0 kt METAR EDWE 120020Z AUTO 00000KT 9999 OVC028/// 14/13 Q1017
01:50
M
14 °C 10 km+ 2.300 ft Var Var 1 kt METAR EDWE 112350Z AUTO VRB01KT 9999 BKN023/// 14/13 Q1017
01:20
V
13 °C 10 km+ - 360° 360° 0 kt METAR EDWE 112320Z AUTO 00000KT 9999 FEW023/// 13/12 Q1017
00:50
V
14 °C 10 km+ 19.000 ft 210° 210° 2 kt METAR EDWE 112250Z AUTO 21002KT 9999 BKN190/// 14/13 Q1017
00:20
V
14 °C 10 km+ 19.000 ft 250° 250° 2 kt METAR EDWE 112220Z AUTO 25002KT 9999 BKN190/// 14/13 Q1017

11. Juli 2024

Uhrzeit Code Wetter Temp. Sichtweite Wolkendecke Wind METAR/SPECI
23:50
V
14 °C 10 km+ 23.000 ft 280° 280° 2 kt METAR EDWE 112150Z AUTO 28002KT 9999 BKN230/// 14/13 Q1017
23:20
V
14 °C 10 km+ 25.000 ft 290° 290° 2 kt METAR EDWE 112120Z AUTO 29002KT 9999 FEW017/// BKN250/// 14/13 Q1017
22:50
I
15 °C 1,8 km - 320° 320° 2 kt METAR EDWE 112050Z AUTO 32002KT 1800 FEW017/// 15/13 Q1017
22:20
L
15 °C 1,4 km - 320° 320° 4 kt METAR EDWE 112020Z AUTO 32004KT 1400 R25/P2000N SCT019/// 15/13 Q1017
21:50
V
16 °C 10 km+ - 320° 320° 5 kt METAR EDWE 111950Z AUTO 32005KT 9999 FEW019/// 16/13 Q1017
21:20
V
17 °C 10 km+ 7.100 ft 310° 310° 7 kt METAR EDWE 111920Z AUTO 31007KT 9999 FEW018/// SCT021/// BKN071/// 17/14 Q1017
20:50
V
18 °C 10 km+ 7.000 ft 290° 290° 9 kt METAR EDWE 111850Z AUTO 29009KT 9999 SCT018/// BKN070/// 18/14 Q1017
05:50
V
16 °C 10 km+ - 200° 200° 4 kt METAR EDWE 110350Z AUTO 20004KT 9999 NCD 16/12 Q1015
05:20
V
16 °C 10 km+ - 210° 210° 4 kt METAR EDWE 110320Z AUTO 21004KT 9999 NCD 16/12 Q1015
04:50
V
16 °C 10 km+ - 210° 210° 5 kt METAR EDWE 110250Z AUTO 21005KT 9999 NCD 16/12 Q1015
04:20
V
16 °C 10 km+ - 220° 220° 5 kt METAR EDWE 110220Z AUTO 22005KT 9999 NCD 16/12 Q1015
03:50
V
17 °C 10 km+ - 200° 200° 7 kt METAR EDWE 110150Z AUTO 20007KT 180V240 9999 FEW054/// 17/13 Q1015
03:20
V
15 °C 10 km+ - 160° 160° 4 kt METAR EDWE 110120Z AUTO 16004KT 120V190 9999 FEW053/// 15/13 Q1015
02:50
V
16 °C 10 km+ - 170° 170° 3 kt METAR EDWE 110050Z AUTO 17003KT 130V200 9999 NCD 16/13 Q1015
02:20
V
16 °C 10 km+ - 180° 180° 4 kt METAR EDWE 110020Z AUTO 18004KT 9999 NCD 16/13 Q1015
01:50
V
16 °C 10 km+ - 180° 180° 3 kt METAR EDWE 102350Z AUTO 18003KT 130V200 9999 NCD 16/13 Q1015
01:20
V
16 °C 10 km+ - 170° 170° 3 kt METAR EDWE 102320Z AUTO 17003KT 150V210 9999 NCD 16/13 Q1015
00:50
V
17 °C 10 km+ - 190° 190° 3 kt METAR EDWE 102250Z AUTO 19003KT 9999 NCD 17/13 Q1015
00:20
V
17 °C 10 km+ - 190° 190° 3 kt METAR EDWE 102220Z AUTO 19003KT 9999 NCD 17/12 Q1015

10. Juli 2024

Uhrzeit Code Wetter Temp. Sichtweite Wolkendecke Wind METAR/SPECI
23:50
V
18 °C 10 km+ - 230° 230° 5 kt METAR EDWE 102150Z AUTO 23005KT 9999 NCD 18/12 Q1016
23:20
V
19 °C 10 km+ - 220° 220° 8 kt METAR EDWE 102120Z AUTO 22008KT 190V250 9999 FEW039/// 19/12 Q1015
22:50
V
18 °C 10 km+ - 210° 210° 3 kt METAR EDWE 102050Z AUTO 21003KT 170V280 9999 SCT039/// 18/13 Q1015
22:20
V
18 °C 10 km+ - 230° 230° 5 kt METAR EDWE 102020Z AUTO 23005KT 9999 FEW042/// 18/13 Q1015
21:50
V
18 °C 10 km+ - 250° 250° 5 kt METAR EDWE 101950Z AUTO 25005KT 9999 SCT060/// 18/14 Q1015
21:20
V
19 °C 10 km+ 6.100 ft 270° 270° 7 kt METAR EDWE 101920Z AUTO 27007KT 9999 FEW039/// BKN061/// 19/14 Q1015
20:50
V
20 °C 10 km+ - 260° 260° 8 kt METAR EDWE 101850Z AUTO 26008KT 9999 FEW032/// 20/14 Q1015
20:20
V
21 °C 10 km+ - 270° 270° 6 kt METAR EDWE 101820Z AUTO 27006KT 9999 FEW035/// SCT062/// 21/15 Q1015
Eine Änderung melden